createdAt,value
2016-10-16T00:01:07.583Z,98.49
2016-10-16T00:02:18.741Z,98.39
2016-10-16T00:03:29.924Z,98.58
2016-10-16T00:04:41.118Z,98.87
2016-10-16T00:05:52.301Z,98.77
2016-10-16T00:07:03.469Z,99.06
2016-10-16T00:08:14.653Z,99.35
2016-10-16T00:09:25.802Z,98.77
2016-10-16T00:10:36.953Z,98.68
2016-10-16T00:11:48.114Z,98.58
2016-10-16T00:12:59.276Z,98.58
2016-10-16T00:14:10.415Z,98.58
2016-10-16T00:15:21.565Z,98.19
2016-10-16T00:16:32.721Z,98.29
2016-10-16T00:17:43.867Z,98.29
2016-10-16T00:18:55.037Z,98.39
2016-10-16T00:20:06.231Z,98.39
2016-10-16T00:21:17.390Z,98.49
2016-10-16T00:22:28.562Z,98.77
2016-10-16T00:23:39.764Z,98.19
2016-10-16T00:24:50.936Z,98.29
2016-10-16T00:26:02.094Z,98.96
2016-10-16T00:27:13.280Z,99.26
2016-10-16T00:28:24.441Z,99.35
2016-10-16T00:29:35.597Z,98.77
2016-10-16T00:30:46.772Z,99.26
2016-10-16T00:31:57.949Z,99.35
2016-10-16T00:33:09.107Z,98.68
2016-10-16T00:34:20.267Z,98.68
2016-10-16T00:35:31.447Z,99.16
2016-10-16T00:36:42.605Z,99.16
2016-10-16T00:37:53.800Z,99.35
2016-10-16T00:39:04.951Z,99.54
2016-10-16T00:41:58.871Z,99.16
2016-10-16T00:43:10.027Z,99.54
2016-10-16T00:44:21.181Z,99.64
2016-10-16T00:45:32.341Z,99.59
2016-10-16T00:46:44.056Z,99.99
2016-10-16T00:47:55.205Z,99.88
2016-10-16T00:49:06.418Z,99.68
2016-10-16T00:50:17.560Z,99.64
2016-10-16T00:51:28.745Z,99.73
2016-10-16T00:52:39.913Z,99.88
2016-10-16T00:53:51.098Z,99.93
2016-10-16T00:55:02.292Z,99.98
2016-10-16T00:56:13.456Z,99.68
2016-10-16T00:57:24.601Z,99.64
2016-10-16T00:58:35.763Z,99.83
2016-10-16T00:59:46.899Z,99.64
2016-10-16T01:00:59.201Z,99.44
2016-10-16T01:02:10.363Z,98.96
2016-10-16T01:03:21.521Z,98.96
2016-10-16T01:04:32.683Z,99.16
2016-10-16T01:05:43.840Z,98.96
2016-10-16T01:06:55.013Z,98.96
2016-10-16T01:08:06.169Z,99.06
2016-10-16T01:09:17.360Z,98.39
2016-10-16T01:10:28.523Z,98.39
2016-10-16T01:11:39.687Z,98.39
2016-10-16T01:12:50.831Z,98.39
2016-10-16T01:14:01.982Z,98.1
2016-10-16T01:15:13.147Z,98.1
2016-10-16T01:16:24.328Z,98.1
2016-10-16T01:17:35.472Z,97.76
2016-10-16T01:18:46.637Z,97.47
2016-10-16T01:19:57.803Z,97.38
2016-10-16T01:21:08.968Z,97.38
2016-10-16T01:22:20.108Z,97.14
2016-10-16T01:23:31.255Z,97.24
2016-10-16T01:24:42.419Z,97.96
2016-10-16T01:25:53.579Z,98.05
2016-10-16T01:27:04.745Z,97.14
2016-10-16T01:28:15.914Z,97.67
2016-10-16T01:29:27.063Z,96.7
2016-10-16T01:30:38.241Z,96.8
2016-10-16T01:31:49.415Z,96.7
2016-10-16T01:33:00.569Z,96.7
2016-10-16T01:34:12.373Z,96.7
2016-10-16T01:35:23.562Z,97.09
2016-10-16T01:36:34.700Z,96.89
2016-10-16T01:37:45.864Z,97.09
2016-10-16T01:38:57.033Z,97.09
2016-10-16T01:40:08.208Z,96.89
2016-10-16T01:41:19.374Z,96.89
2016-10-16T01:42:30.546Z,97.28
2016-10-16T01:43:41.711Z,96.7
2016-10-16T01:44:52.881Z,97.19
2016-10-16T01:46:04.028Z,97.38
2016-10-16T01:47:15.173Z,97.67
2016-10-16T01:48:26.351Z,97.38
2016-10-16T01:49:37.508Z,97.57
2016-10-16T01:50:48.699Z,97.47
2016-10-16T01:51:59.871Z,97.47
2016-10-16T01:53:11.006Z,97.47
2016-10-16T01:54:22.145Z,97.67
2016-10-16T01:55:33.286Z,97.47
2016-10-16T01:56:44.477Z,97.28
2016-10-16T01:57:55.637Z,97.47
2016-10-16T01:59:06.799Z,97.47
2016-10-16T02:00:17.951Z,97.47
2016-10-16T02:01:29.105Z,98.05
2016-10-16T02:02:40.834Z,97.38
2016-10-16T02:03:52.007Z,97.57
2016-10-16T02:05:03.218Z,97.47
2016-10-16T02:06:14.379Z,97.67
2016-10-16T02:07:25.520Z,98.05
2016-10-16T02:08:36.695Z,97.86
2016-10-16T02:09:47.834Z,97.67
2016-10-16T02:10:58.978Z,98.05
2016-10-16T02:12:10.132Z,97.96
2016-10-16T02:13:21.294Z,98.05
2016-10-16T02:14:32.464Z,98.1
2016-10-16T02:15:43.634Z,98.58
2016-10-16T02:16:54.783Z,99.06
2016-10-16T02:18:05.955Z,98.77
2016-10-16T02:19:17.122Z,98.96
2016-10-16T02:20:28.277Z,99.16
2016-10-16T02:21:39.459Z,98.96
2016-10-16T02:22:50.625Z,99.93
2016-10-16T02:24:01.795Z,99.73
2016-10-16T02:25:12.958Z,99.73
2016-10-16T02:26:24.144Z,99.73
2016-10-16T02:27:35.295Z,99.73
2016-10-16T02:28:46.482Z,99.99
2016-10-16T02:29:57.632Z,99.99
2016-10-16T02:31:08.819Z,99.93
2016-10-16T02:32:19.955Z,99.64
2016-10-16T02:33:31.104Z,99.99
2016-10-16T02:34:42.282Z,99.83
2016-10-16T02:35:53.445Z,99.73
2016-10-16T02:37:04.620Z,99.99
2016-10-16T02:38:15.797Z,99.99
2016-10-16T02:39:26.941Z,99.83
2016-10-16T02:40:38.099Z,99.64
2016-10-16T02:41:49.272Z,99.93
2016-10-16T02:43:00.436Z,99.99
2016-10-16T02:44:11.592Z,99.99
2016-10-16T02:45:22.745Z,99.99
2016-10-16T02:46:33.925Z,99.99
2016-10-16T02:47:45.098Z,99.99
2016-10-16T02:48:56.257Z,99.99
2016-10-16T02:50:07.395Z,99.99
2016-10-16T02:51:18.560Z,99.99
2016-10-16T02:52:29.717Z,99.99
2016-10-16T02:53:40.931Z,99.99
2016-10-16T02:54:52.091Z,99.99
2016-10-16T02:56:03.243Z,99.99
2016-10-16T02:57:14.399Z,99.99
2016-10-16T02:58:25.570Z,99.99
2016-10-16T02:59:36.727Z,99.99
2016-10-16T03:00:47.897Z,99.99
2016-10-16T03:01:59.072Z,99.99
2016-10-16T03:03:10.222Z,99.99
2016-10-16T03:04:21.384Z,99.99
2016-10-16T03:05:32.564Z,99.99
2016-10-16T03:06:43.738Z,99.99
2016-10-16T03:07:54.895Z,99.99
2016-10-16T03:09:06.055Z,99.99
2016-10-16T03:10:17.209Z,99.99
2016-10-16T03:11:28.375Z,99.99
2016-10-16T03:12:39.510Z,99.99
2016-10-16T03:13:50.675Z,99.99
2016-10-16T03:15:01.860Z,99.99
2016-10-16T03:16:13.037Z,99.99
2016-10-16T03:17:24.215Z,99.99
2016-10-16T03:18:35.361Z,99.99
2016-10-16T03:19:46.521Z,99.99
2016-10-16T03:20:57.694Z,99.99
2016-10-16T03:22:08.847Z,99.99
2016-10-16T03:23:19.998Z,99.99
2016-10-16T03:24:31.144Z,99.99
2016-10-16T03:25:42.289Z,99.99
2016-10-16T03:26:53.481Z,99.99
2016-10-16T03:28:04.636Z,99.99
2016-10-16T03:29:15.780Z,99.99
2016-10-16T03:30:26.944Z,99.99
2016-10-16T03:31:38.110Z,99.99
2016-10-16T03:32:49.836Z,99.99
2016-10-16T03:34:01.001Z,99.99
2016-10-16T03:35:12.186Z,99.99
2016-10-16T03:36:23.929Z,99.99
2016-10-16T03:37:35.070Z,99.99
2016-10-16T03:38:46.210Z,99.99
2016-10-16T03:39:57.353Z,99.99
2016-10-16T03:41:08.511Z,99.99
2016-10-16T03:42:20.223Z,99.99
2016-10-16T03:43:31.399Z,99.99
2016-10-16T03:44:42.569Z,99.99
2016-10-16T03:45:53.750Z,99.99
2016-10-16T03:47:04.926Z,99.99
2016-10-16T03:48:16.104Z,99.99
2016-10-16T03:49:27.302Z,99.99
2016-10-16T03:50:38.458Z,99.99
2016-10-16T03:51:49.629Z,99.99
2016-10-16T03:53:00.810Z,99.99
2016-10-16T03:54:11.985Z,99.99
2016-10-16T03:55:23.157Z,99.99
2016-10-16T03:56:34.329Z,99.99
2016-10-16T03:57:45.493Z,99.99
2016-10-16T03:58:56.637Z,99.99
2016-10-16T04:00:07.804Z,99.99
2016-10-16T04:01:18.941Z,99.99
2016-10-16T04:02:30.631Z,99.99
2016-10-16T04:03:41.786Z,99.99
2016-10-16T04:04:52.964Z,99.99
2016-10-16T04:06:04.122Z,99.99
2016-10-16T04:07:15.303Z,99.99
2016-10-16T04:08:26.462Z,99.99
2016-10-16T04:09:37.625Z,99.99
2016-10-16T04:10:48.791Z,99.99
2016-10-16T04:11:59.960Z,99.99
2016-10-16T04:13:11.187Z,99.99
2016-10-16T04:14:22.387Z,99.99
2016-10-16T04:15:33.555Z,99.99
2016-10-16T04:16:44.744Z,99.99
2016-10-16T04:17:55.909Z,99.99
2016-10-16T04:19:07.650Z,99.99
2016-10-16T04:20:18.828Z,99.99
2016-10-16T04:21:29.984Z,99.99
2016-10-16T04:22:41.142Z,99.99
2016-10-16T04:23:52.348Z,99.99
2016-10-16T04:25:03.537Z,99.99
2016-10-16T04:26:14.706Z,99.99
2016-10-16T04:27:26.741Z,99.99
2016-10-16T04:28:38.467Z,99.99
2016-10-16T04:29:49.632Z,99.99
2016-10-16T04:31:01.358Z,99.99
2016-10-16T04:32:12.510Z,99.99
2016-10-16T04:33:23.683Z,99.99
2016-10-16T04:34:34.835Z,99.99
2016-10-16T04:35:45.977Z,99.99
2016-10-16T04:36:57.137Z,99.99
2016-10-16T04:38:08.846Z,99.99
2016-10-16T04:39:20.016Z,99.99
2016-10-16T04:40:31.174Z,99.99
2016-10-16T04:41:42.332Z,99.99
2016-10-16T04:42:53.497Z,99.99
2016-10-16T04:44:04.670Z,99.99
2016-10-16T04:45:15.837Z,99.99
2016-10-16T04:46:27.056Z,99.99
2016-10-16T04:47:38.806Z,99.99
2016-10-16T04:48:49.961Z,99.99
2016-10-16T04:50:01.135Z,99.99
2016-10-16T04:51:12.321Z,99.99
2016-10-16T04:52:23.482Z,99.99
2016-10-16T04:53:34.644Z,99.99
2016-10-16T04:54:45.791Z,99.99
2016-10-16T04:55:56.939Z,99.99
2016-10-16T04:57:08.106Z,99.99
2016-10-16T04:58:19.249Z,99.99
2016-10-16T04:59:30.416Z,99.99
2016-10-16T05:00:41.581Z,99.99
2016-10-16T05:01:52.748Z,99.99
2016-10-16T05:03:03.943Z,99.99
2016-10-16T05:04:15.103Z,99.99
2016-10-16T05:05:26.281Z,99.99
2016-10-16T05:06:37.443Z,99.99
2016-10-16T05:07:48.611Z,99.99
2016-10-16T05:08:59.763Z,99.99
2016-10-16T05:10:10.917Z,99.99
2016-10-16T05:11:22.090Z,99.99
2016-10-16T05:12:33.237Z,99.99
2016-10-16T05:13:44.388Z,99.99
2016-10-16T05:14:55.549Z,99.99
2016-10-16T05:16:06.709Z,99.99
2016-10-16T05:17:17.851Z,99.99
2016-10-16T05:18:29.006Z,99.99
2016-10-16T05:19:40.165Z,99.99
2016-10-16T05:20:51.321Z,99.99
2016-10-16T05:22:02.472Z,99.99
2016-10-16T05:23:13.617Z,99.99
2016-10-16T05:24:24.772Z,99.99
2016-10-16T05:25:35.942Z,99.99
2016-10-16T05:26:47.114Z,99.99
2016-10-16T05:27:58.271Z,99.99
2016-10-16T05:29:09.449Z,99.99
2016-10-16T05:30:20.601Z,99.99
2016-10-16T05:31:31.746Z,99.99
2016-10-16T05:32:42.893Z,99.99
2016-10-16T05:33:54.063Z,99.99
2016-10-16T05:35:05.231Z,99.99
2016-10-16T05:36:16.411Z,99.99
2016-10-16T05:37:27.550Z,99.99
2016-10-16T05:38:38.703Z,99.99
2016-10-16T05:39:49.863Z,99.99
2016-10-16T05:41:01.033Z,99.99
2016-10-16T05:42:12.201Z,99.99
2016-10-16T05:43:23.357Z,99.99
2016-10-16T05:44:34.498Z,99.99
2016-10-16T05:45:45.666Z,99.99
2016-10-16T05:46:56.826Z,99.99
2016-10-16T05:48:07.964Z,99.99
2016-10-16T05:49:19.107Z,99.99
2016-10-16T05:50:30.239Z,99.99
2016-10-16T05:51:41.394Z,99.99
2016-10-16T05:52:52.544Z,99.99
2016-10-16T05:54:03.680Z,99.99
2016-10-16T05:55:14.845Z,99.99
2016-10-16T05:56:26.005Z,99.99
2016-10-16T05:57:37.157Z,99.99
2016-10-16T05:58:48.300Z,99.99
2016-10-16T05:59:59.463Z,99.99
2016-10-16T06:01:10.622Z,99.99
2016-10-16T06:02:21.763Z,99.99
2016-10-16T06:03:32.916Z,99.99
2016-10-16T06:04:44.115Z,99.99
2016-10-16T06:05:55.260Z,99.99
2016-10-16T06:07:06.429Z,99.99
2016-10-16T06:08:17.590Z,99.99
2016-10-16T06:09:28.717Z,99.99
2016-10-16T06:10:39.892Z,99.99
2016-10-16T06:11:51.070Z,99.99
2016-10-16T06:13:02.203Z,99.99
2016-10-16T06:14:13.346Z,99.99
2016-10-16T06:15:24.539Z,99.99
2016-10-16T06:16:35.707Z,99.99
2016-10-16T06:17:46.890Z,99.99
2016-10-16T06:18:58.068Z,99.99
2016-10-16T06:20:09.230Z,99.99
2016-10-16T06:21:20.388Z,99.99
2016-10-16T06:22:31.572Z,99.99
2016-10-16T06:23:42.746Z,99.99
2016-10-16T06:24:53.909Z,99.99
2016-10-16T06:26:05.062Z,99.99
2016-10-16T06:27:16.248Z,99.99
2016-10-16T06:28:27.401Z,99.99
2016-10-16T06:29:38.550Z,99.99
2016-10-16T06:30:49.729Z,99.99
2016-10-16T06:32:00.888Z,99.99
2016-10-16T06:33:12.050Z,99.99
2016-10-16T06:34:23.207Z,99.99
2016-10-16T06:35:34.389Z,99.99
2016-10-16T06:36:45.555Z,99.99
2016-10-16T06:37:56.726Z,99.99
2016-10-16T06:39:08.510Z,99.99
2016-10-16T06:40:19.675Z,99.99
2016-10-16T06:41:30.863Z,99.99
2016-10-16T06:42:41.984Z,99.99
2016-10-16T06:43:53.149Z,99.99
2016-10-16T06:45:04.323Z,99.99
2016-10-16T06:46:15.481Z,99.99
2016-10-16T06:47:26.637Z,99.99
2016-10-16T06:48:37.816Z,99.99
2016-10-16T06:49:48.981Z,99.99
2016-10-16T06:51:00.181Z,99.99
2016-10-16T06:52:11.341Z,99.99
2016-10-16T06:53:22.503Z,99.99
2016-10-16T06:54:34.258Z,99.99
2016-10-16T06:55:45.439Z,99.99
2016-10-16T06:56:56.590Z,99.99
2016-10-16T06:58:07.755Z,99.99
2016-10-16T06:59:18.909Z,99.99
2016-10-16T07:00:30.076Z,99.99
2016-10-16T07:01:41.258Z,99.99
2016-10-16T07:02:52.427Z,99.99
2016-10-16T07:04:04.162Z,99.99
2016-10-16T07:05:15.341Z,99.99
2016-10-16T07:06:26.491Z,99.99
2016-10-16T07:07:37.643Z,99.99
2016-10-16T07:08:48.832Z,99.99
2016-10-16T07:09:59.972Z,99.99
2016-10-16T07:11:11.129Z,99.99
2016-10-16T07:12:22.894Z,99.99
2016-10-16T07:13:34.036Z,99.99
2016-10-16T07:14:45.199Z,99.99
2016-10-16T07:15:56.362Z,99.99
2016-10-16T07:17:07.543Z,99.99
2016-10-16T07:18:18.741Z,99.99
2016-10-16T07:19:29.923Z,99.99
2016-10-16T07:20:41.098Z,99.99
2016-10-16T07:21:52.256Z,99.99
2016-10-16T07:23:03.438Z,99.99
2016-10-16T07:24:14.613Z,99.99
2016-10-16T07:25:25.791Z,99.99
2016-10-16T07:26:36.950Z,99.99
2016-10-16T07:27:48.102Z,99.99
2016-10-16T07:28:59.251Z,99.99
2016-10-16T07:30:10.408Z,99.99
2016-10-16T07:31:21.571Z,99.99
2016-10-16T07:32:32.739Z,99.99
2016-10-16T07:33:43.900Z,99.99
2016-10-16T07:34:55.086Z,99.99
2016-10-16T07:36:06.271Z,99.99
2016-10-16T07:37:17.446Z,99.99
2016-10-16T07:38:28.611Z,99.99
2016-10-16T07:39:39.780Z,99.99
2016-10-16T07:40:50.945Z,99.99
2016-10-16T07:42:02.105Z,99.99
2016-10-16T07:43:13.252Z,99.99
2016-10-16T07:44:24.430Z,99.99
2016-10-16T07:45:35.562Z,99.99
2016-10-16T07:46:46.743Z,99.99
2016-10-16T07:47:57.909Z,99.99
2016-10-16T07:49:09.639Z,99.99
2016-10-16T07:50:20.814Z,99.99
2016-10-16T07:51:31.985Z,99.99
2016-10-16T07:52:43.131Z,99.99
2016-10-16T07:53:54.314Z,99.99
2016-10-16T07:55:05.562Z,99.99
2016-10-16T07:56:16.719Z,99.99
2016-10-16T07:57:27.869Z,99.99
2016-10-16T07:58:39.016Z,99.99
2016-10-16T07:59:50.171Z,99.99
2016-10-16T08:01:01.315Z,99.99
2016-10-16T08:02:13.060Z,99.99
2016-10-16T08:03:24.227Z,99.99
2016-10-16T08:04:35.400Z,99.99
2016-10-16T08:05:46.541Z,99.99
2016-10-16T08:06:58.261Z,99.99
2016-10-16T08:08:09.607Z,99.99
2016-10-16T08:09:20.778Z,99.99
2016-10-16T08:10:31.951Z,99.99
2016-10-16T08:11:43.111Z,99.99
2016-10-16T08:12:54.285Z,99.99
2016-10-16T08:14:05.449Z,99.99
2016-10-16T08:15:16.621Z,99.99
2016-10-16T08:16:27.794Z,99.99
2016-10-16T08:17:38.949Z,99.99
2016-10-16T08:18:50.120Z,99.99
2016-10-16T08:20:01.318Z,99.99
2016-10-16T08:21:12.660Z,99.99
2016-10-16T08:22:23.854Z,99.99
2016-10-16T08:23:35.008Z,99.99
2016-10-16T08:24:46.199Z,99.99
2016-10-16T08:25:57.367Z,99.99
2016-10-16T08:27:08.540Z,99.99
2016-10-16T08:28:19.720Z,99.99
2016-10-16T08:29:30.890Z,99.99
2016-10-16T08:30:42.086Z,99.99
2016-10-16T08:31:53.830Z,99.99
2016-10-16T08:33:04.980Z,99.99
2016-10-16T08:34:16.136Z,99.99
2016-10-16T08:35:27.309Z,99.99
2016-10-16T08:36:38.476Z,99.99
2016-10-16T08:37:49.646Z,99.99
2016-10-16T08:39:00.824Z,99.99
2016-10-16T08:40:12.007Z,99.99
2016-10-16T08:41:23.147Z,99.99
2016-10-16T08:42:34.339Z,99.99
2016-10-16T08:43:45.511Z,99.99
2016-10-16T08:44:57.253Z,99.99
2016-10-16T08:46:08.410Z,99.99
2016-10-16T08:47:19.578Z,99.99
2016-10-16T08:48:30.752Z,99.99
2016-10-16T08:49:41.895Z,99.99
2016-10-16T08:50:53.067Z,99.99
2016-10-16T08:52:04.254Z,99.99
2016-10-16T08:53:15.434Z,99.99
2016-10-16T08:54:26.584Z,99.99
2016-10-16T08:55:37.752Z,99.99
2016-10-16T08:56:48.918Z,99.99
2016-10-16T08:58:00.062Z,99.99
2016-10-16T08:59:11.217Z,99.99
2016-10-16T09:00:22.400Z,99.99
2016-10-16T09:01:33.587Z,99.99
2016-10-16T09:02:44.753Z,99.99
2016-10-16T09:03:55.931Z,99.99
2016-10-16T09:05:07.090Z,99.99
2016-10-16T09:06:18.258Z,99.99
2016-10-16T09:07:29.415Z,99.99
2016-10-16T09:08:40.602Z,99.99
2016-10-16T09:09:51.743Z,99.99
2016-10-16T09:11:02.899Z,99.99
2016-10-16T09:12:14.040Z,99.99
2016-10-16T09:13:25.214Z,99.99
2016-10-16T09:14:36.382Z,99.99
2016-10-16T09:15:47.536Z,99.99
2016-10-16T09:16:58.667Z,99.99
2016-10-16T09:18:09.861Z,99.99
2016-10-16T09:19:21.026Z,99.99
2016-10-16T09:20:32.187Z,99.69
2016-10-16T09:21:43.346Z,99.01
2016-10-16T09:22:54.527Z,98.72
2016-10-16T09:24:05.681Z,97.91
2016-10-16T09:25:16.840Z,96.46
2016-10-16T09:26:27.983Z,95.26
2016-10-16T09:27:39.131Z,93.81
2016-10-16T09:28:50.272Z,92.41
2016-10-16T09:30:01.437Z,91.3
2016-10-16T09:31:12.606Z,89.47
2016-10-16T09:32:23.775Z,89.03
2016-10-16T09:33:34.920Z,87.73
2016-10-16T09:34:46.103Z,86.86
2016-10-16T09:35:57.283Z,86.47
2016-10-16T09:37:08.445Z,85.55
2016-10-16T09:38:19.619Z,84.48
2016-10-16T09:39:30.823Z,83.66
2016-10-16T09:40:41.991Z,82.25
2016-10-16T09:41:53.170Z,80.8
2016-10-16T09:43:04.339Z,80.65
2016-10-16T09:44:15.519Z,80.41
2016-10-16T09:45:26.668Z,79.78
2016-10-16T09:46:37.863Z,79
2016-10-16T09:47:49.026Z,79.97
2016-10-16T09:49:00.209Z,79.49
2016-10-16T09:50:11.405Z,78.42
2016-10-16T09:51:22.606Z,78.56
2016-10-16T09:52:33.747Z,77.78
2016-10-16T09:53:44.910Z,76.86
2016-10-16T09:54:56.067Z,74.47
2016-10-16T09:56:07.256Z,73.21
2016-10-16T09:57:18.434Z,73.15
2016-10-16T09:58:29.590Z,72.61
2016-10-16T09:59:40.800Z,72.12
2016-10-16T10:00:52.010Z,72.12
2016-10-16T10:02:03.197Z,71.09
2016-10-16T10:03:14.344Z,70.03
2016-10-16T10:04:25.517Z,70.51
2016-10-16T10:05:36.692Z,70.34
2016-10-16T10:06:47.875Z,72.57
2016-10-16T10:07:59.041Z,74.18
2016-10-16T10:09:10.206Z,73.31
2016-10-16T10:10:21.385Z,70.98
2016-10-16T10:11:33.132Z,71.22
2016-10-16T10:12:44.303Z,71.99
2016-10-16T10:13:55.478Z,71.28
2016-10-16T10:15:06.640Z,71.02
2016-10-16T10:16:17.817Z,72.09
2016-10-16T10:17:28.993Z,72.73
2016-10-16T10:18:40.181Z,73.02
2016-10-16T10:19:51.342Z,74.05
2016-10-16T10:21:02.494Z,73.08
2016-10-16T10:22:13.679Z,72.4
2016-10-16T10:23:24.859Z,72.92
2016-10-16T10:24:36.038Z,72.44
2016-10-16T10:25:47.184Z,72.63
2016-10-16T10:26:58.349Z,72.6
2016-10-16T10:28:09.537Z,71.72
2016-10-16T10:29:20.670Z,72.02
2016-10-16T10:30:31.821Z,70.98
2016-10-16T10:31:43.012Z,70.31
2016-10-16T10:32:54.252Z,69.08
2016-10-16T10:34:05.400Z,68.82
2016-10-16T10:35:16.586Z,66.63
2016-10-16T10:36:27.750Z,66.02
2016-10-16T10:37:38.911Z,65.11
2016-10-16T10:38:50.096Z,65.11
2016-10-16T10:40:01.830Z,67.24
2016-10-16T10:41:13.070Z,68.37
2016-10-16T10:42:24.448Z,70.25
2016-10-16T10:43:35.619Z,70.4
2016-10-16T10:44:46.771Z,70.21
2016-10-16T10:45:57.957Z,70.79
2016-10-16T10:47:09.122Z,70.5
2016-10-16T10:48:20.317Z,68.85
2016-10-16T10:49:31.463Z,70.01
2016-10-16T10:50:42.671Z,72.11
2016-10-16T10:51:53.828Z,71.44
2016-10-16T10:53:05.000Z,70.86
2016-10-16T10:54:16.166Z,69.79
2016-10-16T10:55:27.325Z,70.76
2016-10-16T10:56:38.488Z,71.3
2016-10-16T10:57:49.661Z,71.98
2016-10-16T10:59:00.826Z,71.2
2016-10-16T11:00:11.995Z,70.47
2016-10-16T11:01:23.145Z,69.89
2016-10-16T11:02:34.299Z,68.76
2016-10-16T11:03:45.447Z,69.24
2016-10-16T11:04:56.618Z,68.56
2016-10-16T11:06:07.818Z,68.6
2016-10-16T11:07:19.146Z,67.82
2016-10-16T11:08:30.723Z,68.21
2016-10-16T11:09:41.896Z,67.76
2016-10-16T11:10:53.043Z,67.27
2016-10-16T11:12:04.223Z,65.82
2016-10-16T11:13:15.419Z,65.14
2016-10-16T11:14:26.590Z,64.78
2016-10-16T11:15:37.799Z,64.04
2016-10-16T11:16:49.000Z,64.04
2016-10-16T11:18:00.167Z,64.78
2016-10-16T11:19:11.338Z,65.63
2016-10-16T11:20:22.480Z,64.75
2016-10-16T11:21:33.658Z,66.6
2016-10-16T11:22:44.825Z,66.08
2016-10-16T11:23:56.011Z,65.24
2016-10-16T11:25:07.192Z,65.05
2016-10-16T11:26:18.370Z,64.5
2016-10-16T11:27:29.534Z,64.11
2016-10-16T11:28:40.711Z,63.56
2016-10-16T11:29:51.898Z,63.75
2016-10-16T11:31:03.059Z,62.88
2016-10-16T11:32:14.254Z,63.95
2016-10-16T11:33:25.446Z,63.46
2016-10-16T11:34:36.647Z,62.19
2016-10-16T11:35:47.817Z,62.19
2016-10-16T11:36:58.985Z,62.81
2016-10-16T11:38:10.150Z,61.97
2016-10-16T11:39:21.327Z,62.55
2016-10-16T11:40:32.540Z,61.45
2016-10-16T11:41:43.711Z,61.09
2016-10-16T11:42:54.896Z,59.15
2016-10-16T11:44:06.073Z,57.56
2016-10-16T11:45:17.269Z,55.25
2016-10-16T11:46:28.436Z,56.25
2016-10-16T11:47:39.607Z,55.74
2016-10-16T11:48:50.772Z,58.26
2016-10-16T11:50:01.978Z,59.08
2016-10-16T11:51:13.170Z,58.89
2016-10-16T11:52:24.348Z,58.59
2016-10-16T11:53:35.520Z,58.11
2016-10-16T11:54:46.711Z,58.14
2016-10-16T11:55:57.887Z,55.93
2016-10-16T11:57:09.620Z,55.54
2016-10-16T11:58:20.808Z,55.83
2016-10-16T11:59:32.036Z,55.93
2016-10-16T12:00:43.226Z,55.18
2016-10-16T12:01:54.405Z,53.62
2016-10-16T12:03:05.606Z,53.99
2016-10-16T12:04:16.793Z,54.57
2016-10-16T12:05:28.022Z,56.2
2016-10-16T12:06:39.168Z,55.03
2016-10-16T12:07:50.356Z,55.41
2016-10-16T12:09:01.537Z,51.55
2016-10-16T12:10:12.695Z,51.19
2016-10-16T12:11:23.891Z,51.94
2016-10-16T12:12:35.103Z,52.53
2016-10-16T12:13:46.321Z,52.79
2016-10-16T12:14:57.497Z,54.22
2016-10-16T12:16:08.683Z,53.35
2016-10-16T12:17:19.855Z,54.03
2016-10-16T12:18:31.063Z,55.1
2016-10-16T12:19:42.247Z,54.22
2016-10-16T12:20:53.423Z,54.03
2016-10-16T12:22:04.584Z,54.61
2016-10-16T12:23:15.778Z,55
2016-10-16T12:24:26.962Z,55.98
2016-10-16T12:25:38.143Z,54.22
2016-10-16T12:26:49.300Z,54.22
2016-10-16T12:28:00.481Z,53.06
2016-10-16T12:29:11.655Z,52.31
2016-10-16T12:30:22.827Z,51.87
2016-10-16T12:31:34.010Z,49.92
2016-10-16T12:32:46.704Z,50.63
2016-10-16T12:33:57.850Z,49.56
2016-10-16T12:35:09.056Z,50.82
2016-10-16T12:36:20.282Z,50.8
2016-10-16T12:37:31.443Z,52.33
2016-10-16T12:38:42.618Z,52.69
2016-10-16T12:39:53.804Z,52.82
2016-10-16T12:41:05.012Z,53.25
2016-10-16T12:42:16.167Z,52.47
2016-10-16T12:43:27.329Z,52.31
2016-10-16T12:44:38.490Z,51.84
2016-10-16T12:45:49.672Z,52.62
2016-10-16T12:47:00.836Z,52.92
2016-10-16T12:48:12.012Z,53.08
2016-10-16T12:49:23.215Z,50.97
2016-10-16T12:50:34.418Z,50.7
2016-10-16T12:51:45.596Z,49.56
2016-10-16T12:52:56.773Z,49.68
2016-10-16T12:54:07.922Z,50.78
2016-10-16T12:55:19.095Z,49.88
2016-10-16T12:56:30.266Z,50.26
2016-10-16T12:57:41.454Z,50.46
2016-10-16T12:58:52.629Z,49.88
2016-10-16T13:00:03.804Z,50.85
2016-10-16T13:01:14.997Z,50.63
2016-10-16T13:02:26.173Z,50.43
2016-10-16T13:03:37.343Z,51.41
2016-10-16T13:04:48.550Z,51.34
2016-10-16T13:05:59.707Z,49.29
2016-10-16T13:07:10.892Z,47.58
2016-10-16T13:08:22.078Z,48.97
2016-10-16T13:09:33.266Z,48.1
2016-10-16T13:10:44.445Z,49.99
2016-10-16T13:11:55.656Z,50.75
2016-10-16T13:13:06.823Z,50.56
2016-10-16T13:14:18.001Z,49.41
2016-10-16T13:15:29.273Z,48.34
2016-10-16T13:16:40.455Z,49.41
2016-10-16T13:17:52.202Z,49.78
2016-10-16T13:19:03.407Z,48.71
2016-10-16T13:20:14.570Z,49.49
2016-10-16T13:21:25.745Z,48.8
2016-10-16T13:22:36.909Z,48.9
2016-10-16T13:23:48.075Z,48.54
2016-10-16T13:24:59.241Z,49.39
2016-10-16T13:26:10.439Z,50.24
2016-10-16T13:27:21.607Z,49.76
2016-10-16T13:28:32.760Z,50.14
2016-10-16T13:29:43.928Z,49.85
2016-10-16T13:30:55.125Z,49.29
2016-10-16T13:32:06.342Z,48.44
2016-10-16T13:33:17.547Z,49.22
2016-10-16T13:34:28.700Z,48.24
2016-10-16T13:35:39.865Z,48.93
2016-10-16T13:36:51.196Z,47.85
2016-10-16T13:38:02.954Z,49.12
2016-10-16T13:39:14.169Z,48.14
2016-10-16T13:40:25.324Z,48.54
2016-10-16T13:41:36.512Z,48.24
2016-10-16T13:42:47.708Z,49.68
2016-10-16T13:43:58.876Z,49.58
2016-10-16T13:45:10.088Z,48.71
2016-10-16T13:46:21.287Z,48.05
2016-10-16T13:47:32.451Z,48.56
2016-10-16T13:48:43.644Z,47.75
2016-10-16T13:49:54.825Z,48.36
2016-10-16T13:51:06.020Z,47.97
2016-10-16T13:52:17.190Z,48.54
2016-10-16T13:53:28.359Z,48.34
2016-10-16T13:54:39.529Z,48.05
2016-10-16T13:55:50.711Z,47.58
2016-10-16T13:57:01.886Z,46.02
2016-10-16T13:58:13.066Z,47.19
2016-10-16T13:59:24.238Z,46.41
2016-10-16T14:00:35.438Z,46.04
2016-10-16T14:01:46.613Z,46.14
2016-10-16T14:02:57.797Z,45.26
2016-10-16T14:04:08.955Z,46.14
2016-10-16T14:05:20.139Z,46.12
2016-10-16T14:06:31.349Z,46.9
2016-10-16T14:07:43.052Z,44.97
2016-10-16T14:08:54.229Z,44.8
2016-10-16T14:10:05.407Z,44.8
2016-10-16T14:11:16.587Z,45.87
2016-10-16T14:12:27.761Z,44.02
2016-10-16T14:13:38.945Z,44.12
2016-10-16T14:14:50.108Z,42.58
2016-10-16T14:16:01.282Z,43.48
2016-10-16T14:17:12.480Z,43.57
2016-10-16T14:18:23.640Z,41.6
2016-10-16T14:19:34.817Z,42.09
2016-10-16T14:20:46.001Z,42.6
2016-10-16T14:21:57.228Z,43.18
2016-10-16T14:23:08.440Z,43.33
2016-10-16T14:24:19.606Z,44.02
2016-10-16T14:25:30.769Z,43.53
2016-10-16T14:26:41.955Z,42.65
2016-10-16T14:27:53.144Z,42.97
2016-10-16T14:29:04.313Z,43.16
2016-10-16T14:30:16.054Z,41.31
2016-10-16T14:31:27.271Z,41.52
2016-10-16T14:32:38.452Z,42.77
2016-10-16T14:33:49.646Z,43.24
2016-10-16T14:35:00.843Z,43.04
2016-10-16T14:36:12.024Z,43.16
2016-10-16T14:37:23.214Z,41.42
2016-10-16T14:38:34.383Z,41.05
2016-10-16T14:39:45.580Z,39.78
2016-10-16T14:40:56.785Z,39.62
2016-10-16T14:42:07.983Z,41.76
2016-10-16T14:43:19.178Z,41.03
2016-10-16T14:44:30.384Z,41.91
2016-10-16T14:45:41.569Z,42.4
2016-10-16T14:46:52.750Z,41.91
2016-10-16T14:48:03.943Z,42.01
2016-10-16T14:49:15.150Z,41.03
2016-10-16T14:50:26.328Z,39.31
2016-10-16T14:51:37.528Z,38.34
2016-10-16T14:52:48.701Z,39
2016-10-16T14:53:59.870Z,37.54
2016-10-16T14:55:11.058Z,37.06
2016-10-16T14:56:22.233Z,36.9
2016-10-16T14:57:33.411Z,36.43
2016-10-16T14:58:44.615Z,35.08
2016-10-16T14:59:55.777Z,35.1
2016-10-16T15:01:06.968Z,34.15
2016-10-16T15:02:18.159Z,35.05
2016-10-16T15:03:29.346Z,35.72
2016-10-16T15:04:40.551Z,37.76
2016-10-16T15:05:51.753Z,37.51
2016-10-16T15:07:02.930Z,37.9
2016-10-16T15:08:14.105Z,37.31
2016-10-16T15:09:25.313Z,37.51
2016-10-16T15:10:36.523Z,37.43
2016-10-16T15:11:47.727Z,38
2016-10-16T15:12:58.918Z,38.28
2016-10-16T15:14:10.126Z,38.08
2016-10-16T15:15:21.887Z,38.26
2016-10-16T15:16:33.094Z,38.08
2016-10-16T15:17:44.290Z,38.18
2016-10-16T15:18:55.481Z,38.39
2016-10-16T15:20:06.708Z,37.61
2016-10-16T15:21:17.906Z,36.35